createdAt,value
2019-03-12T00:01:47.798Z,100891.02
2019-03-12T00:04:19.509Z,100888.84
2019-03-12T00:06:51.112Z,100889.03
2019-03-12T00:09:22.729Z,100898.13
2019-03-12T00:11:54.407Z,100894.85
2019-03-12T00:14:26.098Z,100902.41
2019-03-12T00:16:57.787Z,100901.53
2019-03-12T00:19:29.497Z,100901.70
2019-03-12T00:22:01.095Z,100910.91
2019-03-12T00:24:32.720Z,100917.44
2019-03-12T00:27:04.408Z,100921.31
2019-03-12T00:29:36.112Z,100915.02
2019-03-12T00:32:07.711Z,100918.75
2019-03-12T00:34:39.508Z,100917.16
2019-03-12T00:37:11.175Z,100925.20
2019-03-12T00:39:42.789Z,100928.34
2019-03-12T00:42:14.373Z,100936.13
2019-03-12T00:44:46.186Z,100942.77
2019-03-12T00:47:18.098Z,100948.81
2019-03-12T00:49:49.734Z,100953.39
2019-03-12T00:52:21.344Z,100947.27
2019-03-12T00:54:52.966Z,100952.47
2019-03-12T00:57:24.633Z,100958.70
2019-03-12T00:59:56.642Z,100957.66
2019-03-12T01:02:28.288Z,100973.42
2019-03-12T01:04:59.959Z,100973.61
2019-03-12T01:07:31.565Z,100976.78
2019-03-12T01:10:04.262Z,100984.12
2019-03-12T01:12:35.925Z,100988.51
2019-03-12T01:15:07.794Z,101001.69
2019-03-12T01:17:40.464Z,100994.12
2019-03-12T01:20:12.582Z,100999.99
2019-03-12T01:22:44.184Z,101002.94
2019-03-12T01:25:15.807Z,100999.55
2019-03-12T01:27:47.651Z,100997.52
2019-03-12T01:30:19.333Z,101000.36
2019-03-12T01:32:51.248Z,101006.08
2019-03-12T01:35:22.847Z,101013.13
2019-03-12T01:37:54.494Z,101022.94
2019-03-12T01:40:26.198Z,101024.72
2019-03-12T01:42:57.787Z,101024.09
2019-03-12T01:45:29.373Z,101037.48
2019-03-12T01:48:00.995Z,101027.15
2019-03-12T01:50:32.617Z,101034.89
2019-03-12T01:53:04.227Z,101034.82
2019-03-12T01:55:35.907Z,101038.30
2019-03-12T01:58:07.568Z,101041.68
2019-03-12T02:00:39.345Z,101039.32
2019-03-12T02:03:12.005Z,101048.43
2019-03-12T02:05:43.684Z,101049.03
2019-03-12T02:08:15.309Z,101054.86
2019-03-12T02:10:47.170Z,101058.24
2019-03-12T02:13:19.020Z,101061.07
2019-03-12T02:15:51.068Z,101057.91
2019-03-12T02:18:22.932Z,101064.82
2019-03-12T02:20:54.615Z,101065.74
2019-03-12T02:23:28.848Z,101073.20
2019-03-12T02:25:59.638Z,101070.87
2019-03-12T02:28:31.504Z,101078.00
2019-03-12T02:31:03.252Z,101079.02
2019-03-12T02:33:34.950Z,101076.06
2019-03-12T02:36:06.619Z,101075.45
2019-03-12T02:38:38.286Z,101088.08
2019-03-12T02:41:09.893Z,101091.99
2019-03-12T02:43:41.494Z,101090.84
2019-03-12T02:46:14.082Z,101093.32
2019-03-12T02:48:45.754Z,101099.86
2019-03-12T02:51:17.410Z,101107.72
2019-03-12T02:53:49.022Z,101111.09
2019-03-12T02:56:20.813Z,101115.73
2019-03-12T02:58:52.415Z,101120.79
2019-03-12T03:01:24.096Z,101122.75
2019-03-12T03:03:55.778Z,101121.16
2019-03-12T03:06:46.373Z,101129.31
2019-03-12T03:09:18.180Z,101133.83
2019-03-12T03:11:50.981Z,101140.25
2019-03-12T03:14:42.302Z,101147.48
2019-03-12T03:17:16.229Z,101144.73
2019-03-12T03:19:48.131Z,101142.05
2019-03-12T03:22:19.735Z,101148.23
2019-03-12T03:24:51.324Z,101158.11
2019-03-12T03:27:22.936Z,101162.59
2019-03-12T03:29:54.652Z,101169.14
2019-03-12T03:32:26.288Z,101168.95
2019-03-12T03:34:57.910Z,101176.84
2019-03-12T03:37:29.667Z,101173.30
2019-03-12T03:40:01.327Z,101178.25
2019-03-12T03:42:33.222Z,101174.45
2019-03-12T03:45:05.048Z,101178.76
2019-03-12T03:47:36.690Z,101177.02
2019-03-12T03:50:08.713Z,101186.30
2019-03-12T03:52:40.431Z,101189.37
2019-03-12T03:55:13.829Z,101191.94
2019-03-12T03:57:45.569Z,101197.35
2019-03-12T04:00:19.074Z,101200.39
2019-03-12T04:02:50.977Z,101212.99
2019-03-12T04:05:22.698Z,101204.95
2019-03-12T04:07:54.536Z,101205.78
2019-03-12T04:10:26.192Z,101209.58
2019-03-12T04:12:57.791Z,101216.92
2019-03-12T04:15:29.369Z,101214.48
2019-03-12T04:18:01.053Z,101217.22
2019-03-12T04:20:32.735Z,101216.97
2019-03-12T04:23:04.445Z,101218.56
2019-03-12T04:25:36.110Z,101236.20
2019-03-12T04:28:07.770Z,101235.89
2019-03-12T04:30:39.363Z,101228.32
2019-03-12T04:33:41.423Z,101231.25
2019-03-12T04:36:13.033Z,101234.39
2019-03-12T04:38:44.672Z,101239.37
2019-03-12T04:41:16.341Z,101242.99
2019-03-12T04:43:48.118Z,101251.78
2019-03-12T04:46:19.765Z,101254.51
2019-03-12T04:48:51.498Z,101258.33
2019-03-12T04:51:23.088Z,101267.19
2019-03-12T04:53:54.705Z,101269.38
2019-03-12T04:56:26.389Z,101266.69
2019-03-12T04:58:57.976Z,101271.25
2019-03-12T05:01:29.575Z,101272.41
2019-03-12T05:04:01.261Z,101274.95
2019-03-12T05:06:32.922Z,101286.84
2019-03-12T05:09:05.764Z,101281.63
2019-03-12T05:11:38.167Z,101290.92
2019-03-12T05:14:42.022Z,101285.34
2019-03-12T05:17:30.873Z,101288.82
2019-03-12T05:20:02.546Z,101291.06
2019-03-12T05:22:34.219Z,101297.34
2019-03-12T05:25:06.261Z,101300.64
2019-03-12T05:27:37.936Z,101308.02
2019-03-12T05:30:12.153Z,101311.03
2019-03-12T05:32:43.833Z,101303.22
2019-03-12T05:35:15.441Z,101297.58
2019-03-12T05:37:47.205Z,101302.92
2019-03-12T05:40:19.048Z,101305.72
2019-03-12T05:42:50.837Z,101303.69
2019-03-12T05:45:22.427Z,101310.41
2019-03-12T05:47:54.020Z,101312.08
2019-03-12T05:50:25.762Z,101314.80
2019-03-12T05:53:10.301Z,101320.98
2019-03-12T05:55:41.885Z,101317.02
2019-03-12T05:58:13.469Z,101334.66
2019-03-12T06:00:45.073Z,101323.02
2019-03-12T06:03:16.917Z,101323.42
2019-03-12T06:05:48.512Z,101323.08
2019-03-12T06:08:20.170Z,101338.23
2019-03-12T06:10:52.027Z,101335.86
2019-03-12T06:13:23.920Z,101341.77
2019-03-12T06:15:55.749Z,101328.05
2019-03-12T06:18:27.420Z,101332.42
2019-03-12T06:20:59.050Z,101337.96
2019-03-12T06:23:30.651Z,101333.91
2019-03-12T06:26:02.283Z,101335.31
2019-03-12T06:28:34.147Z,101335.28
2019-03-12T06:31:23.038Z,101339.70
2019-03-12T06:33:58.813Z,101344.52
2019-03-12T06:36:35.075Z,101350.20
2019-03-12T06:39:16.029Z,101351.12
2019-03-12T06:42:12.584Z,101351.38
2019-03-12T06:45:03.310Z,101357.17
2019-03-12T06:47:41.759Z,101369.19
2019-03-12T06:50:32.267Z,101367.29
2019-03-12T06:53:22.789Z,101366.48
2019-03-12T06:56:16.025Z,101372.07
2019-03-12T06:59:04.921Z,101368.61
2019-03-12T07:02:13.355Z,101372.73
2019-03-12T07:05:03.966Z,101377.27
2019-03-12T07:07:57.363Z,101384.00
2019-03-12T07:10:37.762Z,101380.70
2019-03-12T07:13:24.920Z,101382.45
2019-03-12T07:16:09.736Z,101389.19
2019-03-12T07:19:03.031Z,101386.69
2019-03-12T07:21:48.499Z,101381.31
2019-03-12T07:24:44.833Z,101381.83
2019-03-12T07:27:26.721Z,101380.48
2019-03-12T07:30:17.241Z,101380.74
2019-03-12T07:33:16.874Z,101385.63
2019-03-12T07:36:16.951Z,101388.59
2019-03-12T07:39:10.631Z,101396.21
2019-03-12T07:41:59.069Z,101396.98
2019-03-12T07:44:51.276Z,101398.91
2019-03-12T07:47:35.786Z,101399.76
2019-03-12T07:50:21.507Z,101389.62
2019-03-12T07:53:07.810Z,101400.41
2019-03-12T07:55:58.426Z,101404.62
2019-03-12T07:58:55.198Z,101382.09
2019-03-12T08:01:45.927Z,101381.12
2019-03-12T08:04:49.564Z,101378.95
2019-03-12T08:07:28.292Z,101376.48
2019-03-12T08:10:25.151Z,101374.69
2019-03-12T08:13:17.431Z,101387.14
2019-03-12T08:16:14.716Z,101385.10
2019-03-12T08:19:05.678Z,101403.37
2019-03-12T08:21:58.117Z,101397.73
2019-03-12T08:24:48.874Z,101409.59
2019-03-12T08:27:43.259Z,101403.64
2019-03-12T08:30:32.433Z,101406.05
2019-03-12T08:33:50.406Z,101410.03
2019-03-12T08:36:40.052Z,101417.89
2019-03-12T08:39:30.717Z,101412.08
2019-03-12T08:42:18.480Z,101417.83
2019-03-12T08:45:15.721Z,101415.92
2019-03-12T08:48:04.047Z,101413.84
2019-03-12T08:50:54.254Z,101415.92
2019-03-12T08:53:44.858Z,101416.78
2019-03-12T08:56:35.460Z,101419.03
2019-03-12T08:59:26.652Z,101413.55
2019-03-12T09:02:23.508Z,101409.13
2019-03-12T09:05:29.269Z,101410.88
2019-03-12T09:08:18.626Z,101410.08
2019-03-12T09:11:09.287Z,101412.40
2019-03-12T09:14:00.092Z,101407.38
2019-03-12T09:16:56.774Z,101408.27
2019-03-12T09:19:35.983Z,101410.83
2019-03-12T09:22:32.635Z,101407.80
2019-03-12T09:25:23.771Z,101399.20
2019-03-12T09:28:15.778Z,101403.80
2019-03-12T09:31:05.213Z,101405.05
2019-03-12T09:33:51.705Z,101406.79
2019-03-12T09:36:41.141Z,101403.73
2019-03-12T09:39:25.946Z,101406.30
2019-03-12T09:42:22.603Z,101391.75
2019-03-12T09:45:19.489Z,101384.36
2019-03-12T09:48:00.864Z,101379.97
2019-03-12T09:50:54.306Z,101385.22
2019-03-12T09:53:45.184Z,101371.97
2019-03-12T09:56:34.742Z,101374.70
2019-03-12T09:59:24.230Z,101381.91
2019-03-12T10:02:09.010Z,101374.88
2019-03-12T10:04:54.303Z,101375.52
2019-03-12T10:07:40.150Z,101376.14
2019-03-12T10:10:31.204Z,101370.38
2019-03-12T10:13:14.741Z,101373.88
2019-03-12T10:16:05.641Z,101373.03
2019-03-12T10:18:56.250Z,101367.23
2019-03-12T10:21:44.143Z,101371.38
2019-03-12T10:24:36.259Z,101371.11
2019-03-12T10:27:32.929Z,101364.85
2019-03-12T10:30:20.398Z,101360.09
2019-03-12T10:33:22.847Z,101363.74
2019-03-12T10:36:02.735Z,101359.29
2019-03-12T10:39:19.270Z,101351.18
2019-03-12T10:42:02.968Z,101363.34
2019-03-12T10:45:02.726Z,101360.27
2019-03-12T10:47:35.541Z,101361.40
2019-03-12T10:50:07.412Z,101361.27
2019-03-12T10:52:39.507Z,101357.55
2019-03-12T10:55:13.423Z,101354.08
2019-03-12T10:57:46.233Z,101350.88
2019-03-12T11:00:19.342Z,101349.50
2019-03-12T11:02:51.284Z,101348.76
2019-03-12T11:05:22.984Z,101344.70
2019-03-12T11:07:54.654Z,101342.98
2019-03-12T11:10:26.329Z,101335.83
2019-03-12T11:12:58.001Z,101345.44
2019-03-12T11:15:29.789Z,101333.92
2019-03-12T11:18:01.449Z,101321.66
2019-03-12T11:20:33.115Z,101319.96
2019-03-12T11:23:04.786Z,101313.68
2019-03-12T11:25:36.467Z,101311.15
2019-03-12T11:28:08.137Z,101301.53
2019-03-12T11:30:39.831Z,101308.74
2019-03-12T11:33:11.558Z,101308.59
2019-03-12T11:35:43.164Z,101312.33
2019-03-12T11:38:14.821Z,101301.97
2019-03-12T11:40:46.542Z,101301.43
2019-03-12T11:43:18.270Z,101303.78
2019-03-12T11:45:50.213Z,101291.06
2019-03-12T11:48:22.264Z,101288.03
2019-03-12T11:50:54.059Z,101284.83
2019-03-12T11:53:26.819Z,101293.00
2019-03-12T11:55:58.577Z,101279.72
2019-03-12T11:58:30.267Z,101279.67
2019-03-12T12:01:04.379Z,101267.89
2019-03-12T12:03:36.243Z,101263.41
2019-03-12T12:06:07.846Z,101268.72
2019-03-12T12:08:39.549Z,101264.27
2019-03-12T12:11:11.201Z,101266.06
2019-03-12T12:13:42.987Z,101262.91
2019-03-12T12:16:14.719Z,101260.80
2019-03-12T12:18:46.426Z,101255.45
2019-03-12T12:21:18.253Z,101249.55
2019-03-12T12:23:50.201Z,101248.67
2019-03-12T12:26:22.099Z,101250.80
2019-03-12T12:28:53.972Z,101248.92
2019-03-12T12:31:25.580Z,101248.13
2019-03-12T12:33:57.260Z,101250.80
2019-03-12T12:36:28.836Z,101242.69
2019-03-12T12:39:00.489Z,101238.62
2019-03-12T12:41:33.694Z,101238.31
2019-03-12T12:44:05.363Z,101236.97
2019-03-12T12:46:37.142Z,101233.17
2019-03-12T12:49:08.818Z,101227.43
2019-03-12T12:51:40.422Z,101226.58
2019-03-12T12:54:12.088Z,101223.63
2019-03-12T12:56:43.769Z,101220.65
2019-03-12T12:59:15.366Z,101219.26
2019-03-12T13:01:47.271Z,101216.43
2019-03-12T13:04:19.142Z,101212.16
2019-03-12T13:06:52.113Z,101206.27
2019-03-12T13:09:24.033Z,101204.39
2019-03-12T13:11:55.694Z,101199.20
2019-03-12T13:14:27.363Z,101183.70
2019-03-12T13:17:00.042Z,101179.25
2019-03-12T13:19:31.821Z,101182.23
2019-03-12T13:22:03.488Z,101175.42
2019-03-12T13:24:35.176Z,101156.87
2019-03-12T13:27:06.761Z,101149.92
2019-03-12T13:29:38.514Z,101155.95
2019-03-12T13:32:13.771Z,101161.25
2019-03-12T13:34:43.608Z,101163.77
2019-03-12T13:37:15.200Z,101166.86
2019-03-12T13:39:46.879Z,101163.53
2019-03-12T13:42:18.539Z,101167.84
2019-03-12T13:44:50.380Z,101156.91
2019-03-12T13:47:22.110Z,101150.61
2019-03-12T13:49:54.062Z,101148.64
2019-03-12T13:52:25.716Z,101152.52
2019-03-12T13:54:58.442Z,101153.58
2019-03-12T13:57:30.092Z,101151.34
2019-03-12T14:00:01.938Z,101151.52
2019-03-12T14:02:35.137Z,101155.65
2019-03-12T14:05:07.080Z,101145.88
2019-03-12T14:07:38.942Z,101144.38
2019-03-12T14:10:12.481Z,101136.45
2019-03-12T14:12:44.237Z,101143.31
2019-03-12T14:15:19.172Z,101140.55
2019-03-12T14:17:51.074Z,101136.00
2019-03-12T14:20:42.906Z,101136.52
2019-03-12T14:23:16.913Z,101127.26
2019-03-12T14:25:49.143Z,101115.91
2019-03-12T14:28:21.106Z,101110.39
2019-03-12T14:30:52.771Z,101105.70
2019-03-12T14:33:24.438Z,101101.17
2019-03-12T14:35:56.108Z,101098.05
2019-03-12T14:38:27.779Z,101091.69
2019-03-12T14:40:59.447Z,101099.05
2019-03-12T14:43:31.111Z,101092.51
2019-03-12T14:46:02.757Z,101091.59
2019-03-12T14:48:47.785Z,101079.89
2019-03-12T14:51:58.253Z,101082.35
2019-03-12T14:54:29.963Z,101066.48
2019-03-12T14:57:18.030Z,101064.86
2019-03-12T14:59:49.641Z,101059.58
2019-03-12T15:02:21.745Z,101052.20
2019-03-12T15:04:53.419Z,101056.23
2019-03-12T15:07:25.096Z,101051.53
2019-03-12T15:09:56.850Z,101039.83
2019-03-12T15:12:28.513Z,101039.94
2019-03-12T15:15:00.351Z,101031.13
2019-03-12T15:17:32.057Z,101021.91
2019-03-12T15:20:03.719Z,101018.69
2019-03-12T15:22:35.391Z,101020.39
2019-03-12T15:25:07.401Z,101018.53
2019-03-12T15:27:39.083Z,101010.78
2019-03-12T15:30:16.313Z,101005.11
2019-03-12T15:32:48.006Z,101006.95
2019-03-12T15:35:19.729Z,101001.66
2019-03-12T15:37:51.322Z,101002.60
2019-03-12T15:40:22.999Z,100995.63
2019-03-12T15:42:54.790Z,100985.90
2019-03-12T15:45:26.442Z,100988.46
2019-03-12T15:47:58.072Z,100969.09
2019-03-12T15:50:29.687Z,100968.31
2019-03-12T15:53:01.381Z,100960.28
2019-03-12T15:55:33.018Z,100955.98
2019-03-12T15:58:04.717Z,100951.83
2019-03-12T16:00:36.316Z,100954.77
2019-03-12T16:03:08.028Z,100938.61
2019-03-12T16:05:39.682Z,100935.73
2019-03-12T16:08:11.382Z,100935.14
2019-03-12T16:10:42.980Z,100928.39
2019-03-12T16:13:14.682Z,100924.95
2019-03-12T16:15:46.369Z,100917.16
2019-03-12T16:18:18.474Z,100920.06
2019-03-12T16:20:50.363Z,100909.30
2019-03-12T16:23:22.285Z,100910.78
2019-03-12T16:25:54.138Z,100904.27
2019-03-12T16:28:26.837Z,100899.15
2019-03-12T16:30:58.440Z,100898.16
2019-03-12T16:33:30.117Z,100896.78
2019-03-12T16:36:02.793Z,100896.34
2019-03-12T16:38:34.431Z,100893.38
2019-03-12T16:41:06.305Z,100894.50
2019-03-12T16:43:38.011Z,100893.60
2019-03-12T16:46:09.636Z,100887.25
2019-03-12T16:48:41.248Z,100885.23
2019-03-12T16:51:12.882Z,100883.23
2019-03-12T16:53:44.505Z,100893.41
2019-03-12T16:56:16.129Z,100887.39
2019-03-12T16:58:48.057Z,100880.97
2019-03-12T17:01:19.746Z,100886.41
2019-03-12T17:03:51.421Z,100881.52
2019-03-12T17:06:23.019Z,100880.61
2019-03-12T17:08:54.640Z,100876.59
2019-03-12T17:11:26.327Z,100879.34
2019-03-12T17:13:58.033Z,100876.23
2019-03-12T17:16:29.720Z,100875.45
2019-03-12T17:19:01.331Z,100869.64
2019-03-12T17:21:33.113Z,100864.55
2019-03-12T17:24:04.801Z,100861.34
2019-03-12T17:26:36.475Z,100858.74
2019-03-12T17:29:08.105Z,100858.90
2019-03-12T17:31:39.787Z,100853.95
2019-03-12T17:34:11.402Z,100844.92
2019-03-12T17:36:43.092Z,100841.95
2019-03-12T17:39:14.718Z,100843.29
2019-03-12T17:41:46.399Z,100837.02
2019-03-12T17:44:18.297Z,100836.63
2019-03-12T17:46:51.237Z,100836.23
2019-03-12T17:49:22.919Z,100828.78
2019-03-12T17:51:54.812Z,100826.73
2019-03-12T17:54:26.881Z,100817.06
2019-03-12T17:56:59.026Z,100810.00
2019-03-12T17:59:31.007Z,100806.89
2019-03-12T18:02:03.116Z,100802.72
2019-03-12T18:04:35.176Z,100798.49
2019-03-12T18:07:07.326Z,100795.05
2019-03-12T18:09:41.147Z,100789.47
2019-03-12T18:12:13.100Z,100789.84
2019-03-12T18:14:44.909Z,100789.37
2019-03-12T18:17:21.154Z,100777.91
2019-03-12T18:19:51.772Z,100776.52
2019-03-12T18:22:23.877Z,100769.52
2019-03-12T18:24:56.003Z,100764.98
2019-03-12T18:27:28.702Z,100761.92
2019-03-12T18:30:00.758Z,100764.75
2019-03-12T18:32:34.314Z,100758.63
2019-03-12T18:35:06.421Z,100752.13
2019-03-12T18:37:38.212Z,100753.77
2019-03-12T18:40:17.453Z,100746.48
2019-03-12T18:42:49.564Z,100745.16
2019-03-12T18:45:22.458Z,100745.86
2019-03-12T18:47:54.280Z,100736.37
2019-03-12T18:50:26.135Z,100731.87
2019-03-12T18:52:57.971Z,100724.92
2019-03-12T18:56:01.914Z,100723.05
2019-03-12T18:58:34.595Z,100721.31
2019-03-12T19:01:11.583Z,100727.34
2019-03-12T19:03:43.652Z,100722.71
2019-03-12T19:06:16.714Z,100718.86
2019-03-12T19:08:48.882Z,100715.74
2019-03-12T19:11:20.947Z,100718.01
2019-03-12T19:13:53.110Z,100713.92
2019-03-12T19:16:25.033Z,100708.69
2019-03-12T19:18:56.863Z,100702.16
2019-03-12T19:21:30.222Z,100701.87
2019-03-12T19:24:03.297Z,100697.53
2019-03-12T19:26:35.658Z,100693.38
2019-03-12T19:29:07.699Z,100689.62
2019-03-12T19:31:47.098Z,100680.05
2019-03-12T19:34:24.919Z,100669.88
2019-03-12T19:37:19.346Z,100658.17
2019-03-12T19:39:56.302Z,100658.89
2019-03-12T19:42:27.955Z,100653.39
2019-03-12T19:45:14.557Z,100644.60
2019-03-12T19:47:47.043Z,100639.34
2019-03-12T19:50:20.485Z,100629.56
2019-03-12T19:52:52.915Z,100626.64
2019-03-12T19:55:28.053Z,100615.25
2019-03-12T19:58:02.598Z,100613.98
2019-03-12T20:00:34.755Z,100606.87
2019-03-12T20:03:13.401Z,100610.31
2019-03-12T20:05:42.074Z,100594.77
2019-03-12T20:08:14.022Z,100589.56
2019-03-12T20:11:18.750Z,100589.76
2019-03-12T20:14:16.622Z,100579.55
2019-03-12T20:17:31.886Z,100574.05
2019-03-12T20:20:58.382Z,100571.77
2019-03-12T20:24:11.671Z,100569.66
2019-03-12T20:27:20.140Z,100548.32
2019-03-12T20:30:28.833Z,100548.22
2019-03-12T20:33:51.685Z,100538.43
2019-03-12T20:37:03.142Z,100525.00
2019-03-12T20:40:23.708Z,100515.08
2019-03-12T20:43:35.216Z,100511.53
2019-03-12T20:47:01.791Z,100502.86
2019-03-12T20:50:02.358Z,100496.26
2019-03-12T20:53:16.608Z,100491.58
2019-03-12T20:56:23.341Z,100480.59
2019-03-12T20:59:51.050Z,100473.34
2019-03-12T21:03:29.671Z,100472.95
2019-03-12T21:06:31.823Z,100462.07
2019-03-12T21:09:52.412Z,100449.69
2019-03-12T21:13:07.912Z,100432.36
2019-03-12T21:16:13.626Z,100433.20
2019-03-12T21:19:21.129Z,100419.31
2019-03-12T21:22:28.656Z,100414.30
2019-03-12T21:25:35.419Z,100420.53
2019-03-12T21:28:49.787Z,100404.75
2019-03-12T21:31:21.466Z,100401.58
2019-03-12T21:33:53.153Z,100390.31
2019-03-12T21:36:24.771Z,100383.86
2019-03-12T21:38:56.401Z,100371.27
2019-03-12T21:41:28.081Z,100364.11
2019-03-12T21:43:59.719Z,100351.34
2019-03-12T21:46:31.312Z,100347.17
2019-03-12T21:49:03.010Z,100342.50
2019-03-12T21:51:34.605Z,100327.28
2019-03-12T21:54:06.302Z,100317.64
2019-03-12T21:56:37.963Z,100313.40
2019-03-12T21:59:09.577Z,100306.13
2019-03-12T22:01:41.256Z,100302.91
2019-03-12T22:04:12.939Z,100296.31
2019-03-12T22:06:44.602Z,100285.27
2019-03-12T22:09:17.556Z,100276.98
2019-03-12T22:11:49.406Z,100271.94
2019-03-12T22:14:21.295Z,100261.27
2019-03-12T22:16:56.091Z,100257.84
2019-03-12T22:19:28.891Z,100250.62
2019-03-12T22:22:09.013Z,100241.57
2019-03-12T22:24:40.759Z,100239.47
2019-03-12T22:27:12.435Z,100235.19
2019-03-12T22:29:44.049Z,100228.77
2019-03-12T22:32:15.640Z,100217.30
2019-03-12T22:34:47.569Z,100211.17
2019-03-12T22:37:19.400Z,100207.17
2019-03-12T22:39:51.327Z,100189.19
2019-03-12T22:42:22.949Z,100191.04
2019-03-12T22:44:54.536Z,100185.33
2019-03-12T22:47:26.112Z,100185.81
2019-03-12T22:49:57.705Z,100173.89
2019-03-12T22:52:29.358Z,100168.49
2019-03-12T22:55:03.835Z,100161.36
2019-03-12T22:57:34.405Z,100153.83
2019-03-12T23:00:23.909Z,100150.12
2019-03-12T23:03:13.318Z,100141.66
2019-03-12T23:06:02.934Z,100134.88
2019-03-12T23:08:52.467Z,100131.00
2019-03-12T23:11:25.816Z,100125.56
2019-03-12T23:13:58.232Z,100122.31
2019-03-12T23:16:30.685Z,100125.56
2019-03-12T23:19:02.412Z,100122.33
2019-03-12T23:21:34.441Z,100109.86
2019-03-12T23:24:06.168Z,100100.05
2019-03-12T23:26:39.093Z,100103.66
2019-03-12T23:29:10.918Z,100095.00
2019-03-12T23:31:43.663Z,100101.56
2019-03-12T23:34:15.387Z,100090.15
2019-03-12T23:36:47.128Z,100080.44
2019-03-12T23:39:18.854Z,100066.53
2019-03-12T23:41:50.614Z,100054.54
2019-03-12T23:44:22.432Z,100053.20
2019-03-12T23:46:54.269Z,100043.23
2019-03-12T23:49:25.993Z,100040.95
2019-03-12T23:51:57.915Z,100043.51
2019-03-12T23:54:30.171Z,100041.92
2019-03-12T23:57:01.930Z,100035.70
2019-03-12T23:59:33.660Z,100028.20
